Main page
METAR-TAF:

METAR-TAF

Airports :

St. Louis Regional Airport

Alton / St. Louis, Illinois, United States

latitude: 38-54N, longitude: 090-03W, elevation: 544 ft

Current weather observation

The report was made 23 minutes ago, at 05:55 UTC
Calm wind
Temperature 72°F
Humidity 73%
Pressure 29.93 in. Hg
Visibility: 10 miles
Clear sky

METAR: KALN 130555Z AUTO 00000KT 10SM CLR 22/17 A2993 RMK AO2 T02180168 10297 20218 403110163

Time: 01:18 (06:18 UTC)


TAF: missing

Weather observations and forecasts of more than 4000 airports (METAR and TAF reports).

The available stations are represented by yellow and red dots on the map.

Hover mouse over dot to see the name of the station.

Then click to see weather observations and forecasts.

To change the map : click on the green buttons with a black cross to zoom in, on the green button with a dash to zoom out, or on the green arrows for adjacent maps.


METAR-TAF: